Time;durP1;ratioP1;P1;durP2;ratioP2;P2;SDS_P1;SDS_P2;PMS_P1;PMS_P2;Temp;Humidity;BMP_temperature;BMP_pressure;BME280_temperature;BME280_humidity;BME280_pressure;Samples;Min_cycle;Max_cycle;Signal;HPM_P1;HPM_P2
2022/07/29 00:02:10;;;;;;;1.00;0.70;;;22.00;51.20;;;;;;5054263;28;20534;-63
2022/07/29 00:04:36;;;;;;;0.98;0.95;;;22.00;51.10;;;;;;5053632;28;20681;-63
2022/07/29 00:07:02;;;;;;;1.00;0.90;;;22.00;51.20;;;;;;5054271;28;20179;-63
2022/07/29 00:09:28;;;;;;;1.15;1.00;;;22.00;51.10;;;;;;5054156;28;20190;-63
2022/07/29 00:11:54;;;;;;;1.35;0.93;;;22.00;51.90;;;;;;5053245;28;20183;-63
2022/07/29 00:14:20;;;;;;;1.75;0.90;;;22.00;51.20;;;;;;5036441;28;20654;-64
2022/07/29 00:16:45;;;;;;;1.45;1.30;;;22.00;51.40;;;;;;5053984;28;20229;-64
2022/07/29 00:19:11;;;;;;;2.42;0.98;;;22.00;51.30;;;;;;5053234;28;20178;-64
2022/07/29 00:21:36;;;;;;;0.85;0.80;;;22.00;51.40;;;;;;5054123;28;20175;-64
2022/07/29 00:24:02;;;;;;;1.25;0.95;;;22.00;51.50;;;;;;5053854;28;20175;-64
2022/07/29 00:26:31;;;;;;;1.88;0.75;;;21.90;51.40;;;;;;5053192;28;20171;-64
2022/07/29 00:28:57;;;;;;;1.00;0.90;;;21.90;51.40;;;;;;5053994;28;20206;-64
2022/07/29 00:31:23;;;;;;;3.22;1.20;;;22.00;51.40;;;;;;5053597;28;20701;-63
2022/07/29 00:33:48;;;;;;;1.27;0.90;;;22.00;51.50;;;;;;5052920;28;20211;-65
2022/07/29 00:36:14;;;;;;;0.95;0.70;;;21.90;51.50;;;;;;5053840;28;20182;-63
2022/07/29 00:38:41;;;;;;;1.00;0.90;;;21.90;51.60;;;;;;5052945;28;20194;-63
2022/07/29 00:41:06;;;;;;;1.58;0.93;;;21.90;51.60;;;;;;5053199;28;20179;-64
2022/07/29 00:43:32;;;;;;;0.93;0.80;;;21.90;51.70;;;;;;5053661;28;20542;-63
2022/07/29 00:45:57;;;;;;;1.58;0.77;;;21.90;51.60;;;;;;5053434;28;20637;-63
2022/07/29 00:48:23;;;;;;;1.20;1.08;;;21.90;51.60;;;;;;5052778;28;20179;-62
2022/07/29 00:50:49;;;;;;;1.48;1.10;;;21.90;51.60;;;;;;5053434;28;20171;-63
2022/07/29 00:53:14;;;;;;;1.83;1.20;;;21.90;51.60;;;;;;5035540;28;20214;-62
2022/07/29 00:55:40;;;;;;;1.65;1.00;;;21.90;51.60;;;;;;5052487;28;20179;-63
2022/07/29 00:58:05;;;;;;;1.83;1.10;;;21.90;51.70;;;;;;5053643;28;20179;-63
2022/07/29 01:00:31;;;;;;;2.08;0.90;;;21.90;51.70;;;;;;5035491;28;20175;-63
2022/07/29 01:02:57;;;;;;;1.73;1.10;;;21.90;51.80;;;;;;5052734;28;20797;-64
2022/07/29 01:05:23;;;;;;;1.00;0.90;;;21.90;51.70;;;;;;5053286;28;20269;-63
2022/07/29 01:07:51;;;;;;;0.88;0.80;;;21.90;51.90;;;;;;5052296;28;20258;-65
2022/07/29 01:10:16;;;;;;;1.05;0.98;;;21.90;51.80;;;;;;5035559;28;20182;-63
2022/07/29 01:12:43;;;;;;;1.55;1.00;;;21.90;51.80;;;;;;5018902;28;20211;-64
2022/07/29 01:15:08;;;;;;;1.23;0.80;;;21.90;51.80;;;;;;5052519;28;20183;-64
2022/07/29 01:17:50;;;;;;;1.25;1.00;;;21.90;51.80;;;;;;5053190;28;20197;-64
2022/07/29 01:20:30;;;;;;;1.25;1.00;;;21.90;51.90;;;;;;5035119;28;20675;-64
2022/07/29 01:23:10;;;;;;;1.77;1.00;;;21.90;51.90;;;;;;5052321;28;20182;-64
2022/07/29 01:25:54;;;;;;;3.28;1.13;;;21.90;51.90;;;;;;5035338;28;20253;-63
2022/07/29 01:28:39;;;;;;;1.52;1.10;;;21.90;52.00;;;;;;5035153;28;20182;-63
2022/07/29 01:31:04;;;;;;;1.98;1.10;;;21.90;52.00;;;;;;5018611;28;20258;-64
2022/07/29 01:36:17;;;;;;;1.08;1.05;;;21.90;52.40;;;;;;5036963;28;20540;-63
2022/07/29 01:38:43;;;;;;;1.17;1.13;;;21.80;52.30;;;;;;5052645;28;20263;-64
2022/07/29 01:41:10;;;;;;;1.95;1.23;;;21.80;52.30;;;;;;5034876;28;20229;-64
2022/07/29 01:43:52;;;;;;;1.42;1.08;;;21.80;52.30;;;;;;5052067;28;20178;-64
2022/07/29 01:46:41;;;;;;;1.48;0.98;;;21.80;52.40;;;;;;5052587;28;20653;-63
2022/07/29 01:49:30;;;;;;;1.33;1.15;;;21.80;52.50;;;;;;5020211;28;20183;-63
2022/07/29 01:52:07;;;;;;;1.10;1.00;;;21.80;52.60;;;;;;5040862;28;20245;-62
2022/07/29 01:54:45;;;;;;;1.15;0.98;;;21.80;52.40;;;;;;5018922;28;20198;-62
2022/07/29 01:57:12;;;;;;;1.42;1.00;;;21.80;52.50;;;;;;5051804;28;20183;-63
2022/07/29 01:59:38;;;;;;;1.02;1.00;;;21.80;53.30;;;;;;5034633;28;20189;-63
2022/07/29 02:02:03;;;;;;;1.27;1.10;;;21.80;52.60;;;;;;5052534;28;20540;-64
2022/07/29 02:04:29;;;;;;;1.48;1.10;;;21.80;52.70;;;;;;5017454;28;20179;-63
2022/07/29 02:06:56;;;;;;;1.70;1.30;;;21.80;52.70;;;;;;5034528;28;20171;-64
2022/07/29 02:09:21;;;;;;;1.00;0.90;;;21.80;52.50;;;;;;5018490;28;20179;-63
2022/07/29 02:11:52;;;;;;;1.25;1.15;;;21.80;52.70;;;;;;5033940;28;20278;-63
2022/07/29 02:14:18;;;;;;;1.33;1.10;;;21.80;52.70;;;;;;5034495;28;20223;-64
2022/07/29 02:16:44;;;;;;;1.77;1.02;;;21.80;52.60;;;;;;5052098;28;20187;-64
2022/07/29 02:19:09;;;;;;;0.90;0.80;;;21.80;52.80;;;;;;5034112;28;20552;-64
2022/07/29 02:21:35;;;;;;;1.25;1.15;;;21.80;52.70;;;;;;5018072;28;20680;-64
2022/07/29 02:24:01;;;;;;;1.40;1.08;;;21.80;52.70;;;;;;5052162;28;20187;-63
2022/07/29 02:26:26;;;;;;;1.17;1.00;;;21.80;52.80;;;;;;5051610;28;20183;-63
2022/07/29 02:28:53;;;;;;;1.50;1.40;;;21.80;52.80;;;;;;5018020;28;20571;-63
2022/07/29 02:31:20;;;;;;;1.38;1.25;;;21.80;52.70;;;;;;5017869;28;20231;-63
2022/07/29 02:33:46;;;;;;;1.88;1.10;;;21.70;52.80;;;;;;5017191;28;20230;-64
2022/07/29 02:36:11;;;;;;;0.98;0.95;;;21.70;52.80;;;;;;5034461;28;20183;-63
2022/07/29 02:38:52;;;;;;;1.00;1.00;;;21.80;52.90;;;;;;5018222;28;20179;-64
2022/07/29 02:41:24;;;;;;;1.10;1.00;;;21.80;52.90;;;;;;5021427;28;20542;-64
2022/07/29 02:43:53;;;;;;;1.13;1.00;;;21.80;53.00;;;;;;5017926;28;20183;-64
2022/07/29 02:46:24;;;;;;;1.60;1.00;;;21.70;52.90;;;;;;5033962;28;20172;-63
2022/07/29 02:49:03;;;;;;;1.10;1.10;;;21.80;52.90;;;;;;5034319;28;20189;-62
2022/07/29 02:51:34;;;;;;;1.42;1.15;;;21.70;52.80;;;;;;5019041;28;20270;-63
2022/07/29 02:53:59;;;;;;;1.65;1.30;;;21.80;52.90;;;;;;5033332;28;20229;-63
2022/07/29 02:56:27;;;;;;;2.22;1.42;;;21.70;53.00;;;;;;5017764;28;20650;-63
2022/07/29 02:58:55;;;;;;;1.10;1.00;;;21.70;52.90;;;;;;5018531;28;20175;-63
2022/07/29 03:01:22;;;;;;;1.10;1.00;;;21.70;53.00;;;;;;5019112;28;20232;-63
2022/07/29 03:03:49;;;;;;;1.27;1.17;;;21.70;53.00;;;;;;5021353;28;20186;-64
2022/07/29 03:06:15;;;;;;;2.60;1.10;;;21.70;53.00;;;;;;5055452;28;20175;-63
2022/07/29 03:08:40;;;;;;;1.00;1.00;;;21.70;53.60;;;;;;5020295;28;20684;-64
2022/07/29 03:11:06;;;;;;;1.08;0.90;;;21.70;53.10;;;;;;5037936;28;20648;-64
2022/07/29 03:13:31;;;;;;;1.33;1.00;;;21.70;53.10;;;;;;5037444;28;20576;-64
2022/07/29 03:15:57;;;;;;;1.98;1.13;;;21.70;53.10;;;;;;5054439;28;20652;-64
2022/07/29 03:18:23;;;;;;;1.85;0.90;;;21.70;53.10;;;;;;5037426;28;20175;-64
2022/07/29 03:20:48;;;;;;;1.02;0.90;;;21.70;53.10;;;;;;5037239;28;20179;-64
2022/07/29 03:23:22;;;;;;;2.35;1.10;;;21.70;53.20;;;;;;5054387;28;20223;-64
2022/07/29 03:25:48;;;;;;;2.20;1.30;;;21.70;53.10;;;;;;5055154;28;20198;-64
2022/07/29 03:28:13;;;;;;;0.82;0.77;;;21.70;53.10;;;;;;5054720;28;20637;-64
2022/07/29 03:30:39;;;;;;;1.30;1.20;;;21.70;53.20;;;;;;5054301;28;20226;-63
2022/07/29 03:33:04;;;;;;;1.08;0.98;;;21.70;53.40;;;;;;5055013;28;20210;-64
2022/07/29 03:35:31;;;;;;;1.10;1.00;;;21.70;53.40;;;;;;5054251;28;20175;-64
2022/07/29 03:37:57;;;;;;;0.90;0.90;;;21.60;53.30;;;;;;5054579;28;20179;-63
2022/07/29 03:40:26;;;;;;;1.00;0.88;;;21.60;53.30;;;;;;5055125;28;20220;-64
2022/07/29 03:42:51;;;;;;;1.23;1.10;;;21.70;53.40;;;;;;5020100;28;20199;-63
2022/07/29 03:45:18;;;;;;;1.23;1.13;;;21.60;53.40;;;;;;5037041;28;20560;-63
2022/07/29 03:47:47;;;;;;;1.15;1.10;;;21.60;53.50;;;;;;5054587;28;20183;-63
2022/07/29 03:50:13;;;;;;;0.90;0.90;;;21.60;53.50;;;;;;5036243;28;20206;-63
2022/07/29 03:52:39;;;;;;;0.90;0.90;;;21.70;53.60;;;;;;5036811;28;20207;-63
2022/07/29 03:55:05;;;;;;;1.67;1.13;;;21.60;53.50;;;;;;5037080;28;20182;-63
2022/07/29 03:57:30;;;;;;;1.25;1.15;;;21.60;53.60;;;;;;5053831;28;20193;-63
2022/07/29 03:59:56;;;;;;;1.35;1.15;;;21.60;53.60;;;;;;5054426;28;20254;-65
2022/07/29 04:02:22;;;;;;;1.58;1.20;;;21.60;53.60;;;;;;5036813;28;20534;-64
2022/07/29 04:04:48;;;;;;;1.30;1.10;;;21.60;53.60;;;;;;5019636;28;20175;-64
2022/07/29 04:07:14;;;;;;;1.48;1.20;;;21.60;53.60;;;;;;5054436;28;20183;-64
2022/07/29 04:09:39;;;;;;;1.83;1.13;;;21.60;53.70;;;;;;5053990;28;20673;-64
2022/07/29 04:12:05;;;;;;;1.20;1.10;;;21.60;53.80;;;;;;5052824;28;20246;-64
2022/07/29 04:14:32;;;;;;;1.73;1.02;;;21.60;53.80;;;;;;5054239;28;20179;-63
2022/07/29 04:16:57;;;;;;;1.30;1.10;;;21.60;53.90;;;;;;5054034;28;20202;-65
2022/07/29 04:19:23;;;;;;;1.33;1.23;;;21.60;53.90;;;;;;5053361;28;20179;-64
2022/07/29 04:21:48;;;;;;;1.08;0.90;;;21.60;53.80;;;;;;5053783;28;20171;-64
2022/07/29 04:24:14;;;;;;;1.10;1.00;;;21.60;53.90;;;;;;5053933;28;20198;-64
2022/07/29 04:26:39;;;;;;;1.30;1.20;;;21.50;53.80;;;;;;5053364;28;20625;-64
2022/07/29 04:29:05;;;;;;;1.55;1.35;;;21.60;53.90;;;;;;5054448;28;20210;-65
2022/07/29 04:31:30;;;;;;;0.90;0.90;;;21.60;53.90;;;;;;5053587;28;20244;-63
2022/07/29 04:33:56;;;;;;;1.90;1.50;;;21.60;53.90;;;;;;5052969;28;20203;-66
2022/07/29 04:36:21;;;;;;;1.05;1.00;;;21.60;53.90;;;;;;5053673;28;20179;-64
2022/07/29 04:38:47;;;;;;;1.30;1.20;;;21.60;54.00;;;;;;5053038;28;20175;-64
2022/07/29 04:41:13;;;;;;;2.03;1.13;;;21.60;54.00;;;;;;5053803;28;20184;-64
2022/07/29 04:43:38;;;;;;;0.90;0.90;;;21.60;53.90;;;;;;5053528;28;20183;-64
2022/07/29 04:46:05;;;;;;;1.10;1.00;;;21.60;54.00;;;;;;5052994;28;20641;-64
2022/07/29 04:48:31;;;;;;;1.23;1.10;;;21.60;54.00;;;;;;5053476;28;20194;-63
2022/07/29 04:50:56;;;;;;;1.70;1.10;;;21.60;54.10;;;;;;5053321;28;20175;-63
2022/07/29 04:53:22;;;;;;;1.35;1.05;;;21.60;53.90;;;;;;5052926;28;20239;-63
2022/07/29 04:55:47;;;;;;;1.05;0.90;;;21.60;54.10;;;;;;5053380;28;20178;-63
2022/07/29 04:58:13;;;;;;;1.40;1.30;;;21.60;54.10;;;;;;5053448;28;20167;-63
2022/07/29 05:00:39;;;;;;;3.42;1.00;;;21.60;54.10;;;;;;5052580;28;20258;-64
2022/07/29 05:03:04;;;;;;;1.17;1.00;;;21.60;54.10;;;;;;5053383;28;20220;-64
2022/07/29 05:05:30;;;;;;;1.27;1.10;;;21.50;54.00;;;;;;5053092;28;20186;-64
2022/07/29 05:07:56;;;;;;;0.98;0.90;;;21.60;54.10;;;;;;5052258;28;20179;-64
2022/07/29 05:10:21;;;;;;;1.70;1.10;;;21.50;54.10;;;;;;5053012;28;20646;-64
2022/07/29 05:12:47;;;;;;;1.20;1.10;;;21.60;54.20;;;;;;5052841;28;20214;-64
2022/07/29 05:15:12;;;;;;;1.38;1.20;;;21.50;54.20;;;;;;5052385;28;20193;-64
2022/07/29 05:17:38;;;;;;;0.90;0.90;;;21.60;54.20;;;;;;5052928;28;20194;-65
2022/07/29 05:20:05;;;;;;;1.10;1.00;;;21.50;54.00;;;;;;5052998;28;20175;-65
2022/07/29 05:22:30;;;;;;;1.45;1.20;;;21.50;54.10;;;;;;5052265;28;20183;-64
2022/07/29 05:24:56;;;;;;;1.70;1.00;;;21.50;54.00;;;;;;5052794;28;20220;-64
2022/07/29 05:27:21;;;;;;;1.23;1.13;;;21.60;54.20;;;;;;5052859;28;20250;-64
2022/07/29 05:29:47;;;;;;;1.20;1.10;;;21.60;54.10;;;;;;5051933;28;20175;-65
2022/07/29 05:32:12;;;;;;;1.35;1.25;;;21.50;53.90;;;;;;5052552;28;20226;-64
2022/07/29 05:34:38;;;;;;;1.50;1.02;;;21.60;53.90;;;;;;5052554;28;20175;-64
2022/07/29 05:37:03;;;;;;;4.80;1.50;;;21.60;53.90;;;;;;5052306;28;20167;-64
2022/07/29 05:39:29;;;;;;;4.13;1.33;;;21.60;53.90;;;;;;5052855;28;20209;-64
2022/07/29 05:41:55;;;;;;;0.90;0.90;;;21.60;53.80;;;;;;5051704;28;20178;-64
2022/07/29 05:44:20;;;;;;;1.42;1.15;;;21.50;53.80;;;;;;5052790;28;20179;-64
2022/07/29 05:46:46;;;;;;;1.05;0.90;;;21.50;53.80;;;;;;5052541;28;20167;-64
2022/07/29 05:49:11;;;;;;;2.42;1.02;;;21.60;53.90;;;;;;5051790;28;20194;-63
2022/07/29 05:51:37;;;;;;;1.13;1.02;;;21.60;53.90;;;;;;5052826;28;20167;-63
2022/07/29 05:54:03;;;;;;;2.55;0.95;;;21.50;53.80;;;;;;5052638;28;20214;-64
2022/07/29 05:56:28;;;;;;;2.05;1.08;;;21.60;53.90;;;;;;5051998;28;20175;-63
2022/07/29 05:58:54;;;;;;;1.20;1.10;;;21.60;53.90;;;;;;5052296;28;20629;-64
2022/07/29 06:01:19;;;;;;;1.38;1.23;;;21.60;53.90;;;;;;5052453;28;20179;-64
2022/07/29 06:03:45;;;;;;;1.17;1.08;;;21.60;53.90;;;;;;5051496;28;20171;-64
2022/07/29 06:06:11;;;;;;;1.75;1.20;;;21.60;54.00;;;;;;5052562;28;20178;-64
2022/07/29 06:08:36;;;;;;;1.20;1.00;;;21.60;54.00;;;;;;5052701;28;20175;-65
2022/07/29 06:11:02;;;;;;;3.40;1.40;;;21.60;54.10;;;;;;5051780;28;20198;-64
2022/07/29 06:13:28;;;;;;;3.15;1.60;;;21.60;54.40;;;;;;5052256;28;20207;-64
2022/07/29 06:15:53;;;;;;;6.20;1.30;;;21.50;54.30;;;;;;5052122;28;20171;-64
2022/07/29 06:18:20;;;;;;;1.52;0.93;;;21.60;54.20;;;;;;5051542;28;20179;-63
2022/07/29 06:20:46;;;;;;;9.32;1.90;;;21.60;54.40;;;;;;5052367;28;20260;-64
2022/07/29 06:23:11;;;;;;;5.82;1.73;;;21.60;54.50;;;;;;5052148;28;20667;-64
2022/07/29 06:25:37;;;;;;;3.20;1.55;;;21.60;54.50;;;;;;5051513;28;20259;-64
2022/07/29 06:28:03;;;;;;;8.95;2.05;;;21.60;54.70;;;;;;5052289;28;20626;-64
2022/07/29 06:30:29;;;;;;;1.92;1.20;;;21.60;54.70;;;;;;5052100;28;20570;-67
2022/07/29 06:32:55;;;;;;;2.95;1.48;;;21.60;54.70;;;;;;5051249;28;20229;-63
2022/07/29 06:35:21;;;;;;;2.90;1.52;;;21.60;54.60;;;;;;5052792;28;20190;-64
2022/07/29 06:37:46;;;;;;;4.75;1.70;;;21.60;54.60;;;;;;5056066;28;20203;-64
2022/07/29 06:42:56;;;;;;;5.25;1.73;;;21.60;54.80;;;;;;5055807;28;20592;-64
2022/07/29 06:45:21;;;;;;;6.28;1.73;;;21.60;54.70;;;;;;5055005;28;20632;-62
2022/07/29 06:47:48;;;;;;;4.03;1.30;;;21.70;54.80;;;;;;5056036;28;20171;-62
2022/07/29 06:50:13;;;;;;;3.75;1.50;;;21.70;54.80;;;;;;5055882;28;20186;-61
2022/07/29 06:52:40;;;;;;;4.60;1.20;;;21.70;54.70;;;;;;5054868;28;20211;-61
2022/07/29 06:55:06;;;;;;;3.35;1.42;;;21.70;54.70;;;;;;5055862;28;20175;-62
2022/07/29 06:57:32;;;;;;;6.50;1.73;;;21.70;54.70;;;;;;5055726;28;20171;-64
2022/07/29 06:59:57;;;;;;;4.53;1.42;;;21.70;54.70;;;;;;5054892;28;20537;-65
2022/07/29 07:02:23;;;;;;;4.60;1.52;;;21.70;54.60;;;;;;5055394;28;20178;-64
2022/07/29 07:04:48;;;;;;;4.57;1.30;;;21.70;54.70;;;;;;5055425;28;20171;-64
2022/07/29 07:07:14;;;;;;;6.45;1.90;;;21.70;54.70;;;;;;5054812;28;20179;-65
2022/07/29 07:09:39;;;;;;;2.83;1.50;;;21.70;54.70;;;;;;5055338;28;20169;-64
2022/07/29 07:12:05;;;;;;;5.07;1.77;;;21.70;54.70;;;;;;5055528;28;20240;-65
2022/07/29 07:14:31;;;;;;;3.25;1.40;;;21.70;54.70;;;;;;5054629;28;20219;-65
2022/07/29 07:16:56;;;;;;;5.55;1.73;;;21.70;54.70;;;;;;5055244;28;20175;-65
2022/07/29 07:19:22;;;;;;;1.88;1.40;;;21.70;54.70;;;;;;5055397;28;20175;-65
2022/07/29 07:21:47;;;;;;;4.35;1.45;;;21.70;54.80;;;;;;5054496;28;20182;-65
2022/07/29 07:24:13;;;;;;;3.88;1.80;;;21.70;54.80;;;;;;5055308;28;20179;-64
2022/07/29 07:26:39;;;;;;;2.88;1.35;;;21.60;54.80;;;;;;5054815;28;20170;-64
2022/07/29 07:29:05;;;;;;;5.00;2.10;;;21.70;54.80;;;;;;5054362;28;20232;-64
2022/07/29 07:31:30;;;;;;;2.17;1.42;;;21.60;54.80;;;;;;5054881;28;20226;-65
2022/07/29 07:33:56;;;;;;;1.80;1.15;;;21.70;54.80;;;;;;5055309;28;20268;-65
2022/07/29 07:36:22;;;;;;;2.33;1.55;;;21.70;54.80;;;;;;5054017;28;20638;-64
2022/07/29 07:38:47;;;;;;;2.58;1.63;;;21.70;54.80;;;;;;5054459;28;20186;-65
2022/07/29 07:41:13;;;;;;;1.50;1.25;;;21.60;54.70;;;;;;5054596;28;20306;-64
2022/07/29 07:43:39;;;;;;;1.25;1.10;;;21.70;54.80;;;;;;5053781;28;20304;-64
2022/07/29 07:46:04;;;;;;;1.95;1.33;;;21.60;54.80;;;;;;5054680;28;20261;-65
2022/07/29 07:48:30;;;;;;;3.90;1.52;;;21.60;54.80;;;;;;5054281;28;20233;-63
2022/07/29 07:50:55;;;;;;;3.20;1.40;;;21.60;54.80;;;;;;5054693;28;20201;-64
2022/07/29 07:53:21;;;;;;;3.03;1.20;;;21.60;54.80;;;;;;5054248;28;20253;-63
2022/07/29 07:55:46;;;;;;;2.17;1.38;;;21.60;54.80;;;;;;5053875;28;20182;-64
2022/07/29 07:58:12;;;;;;;7.03;1.40;;;21.70;54.80;;;;;;5054584;28;20179;-64
2022/07/29 08:00:37;;;;;;;1.95;1.73;;;21.60;54.70;;;;;;5054288;28;20171;-63
2022/07/29 08:03:03;;;;;;;1.33;1.20;;;21.60;54.80;;;;;;5053741;28;20171;-65
2022/07/29 08:05:29;;;;;;;2.08;1.45;;;21.60;54.80;;;;;;5054541;28;20572;-64
2022/07/29 08:07:54;;;;;;;1.73;1.40;;;21.60;54.80;;;;;;5054519;28;20537;-65
2022/07/29 08:13:08;;;;;;;2.42;1.80;;;21.60;54.90;;;;;;5054336;28;20252;-65
2022/07/29 08:15:34;;;;;;;3.13;1.55;;;21.60;54.90;;;;;;5054340;28;20176;-64
2022/07/29 08:17:59;;;;;;;1.75;1.40;;;21.60;54.90;;;;;;5053327;28;20244;-64
2022/07/29 08:20:25;;;;;;;3.15;1.33;;;21.60;54.90;;;;;;5053927;28;20179;-64
2022/07/29 08:22:51;;;;;;;2.20;1.30;;;21.60;54.80;;;;;;5053995;28;20555;-64
2022/07/29 08:25:20;;;;;;;2.05;1.20;;;21.70;54.90;;;;;;5053292;28;20167;-64
2022/07/29 08:27:46;;;;;;;2.03;1.38;;;21.60;54.80;;;;;;5053713;28;20286;-65
2022/07/29 08:30:11;;;;;;;1.70;1.60;;;21.70;54.80;;;;;;5053825;28;20306;-64
2022/07/29 08:32:37;;;;;;;2.20;1.38;;;21.70;54.80;;;;;;5052217;28;20733;-64
2022/07/29 08:35:03;;;;;;;1.58;1.13;;;21.70;54.80;;;;;;5052976;28;20532;-65
2022/07/29 08:37:28;;;;;;;3.00;1.50;;;21.70;54.80;;;;;;5052635;28;20174;-64
2022/07/29 08:39:54;;;;;;;1.58;1.40;;;21.70;54.80;;;;;;5051921;28;20203;-65
2022/07/29 08:42:19;;;;;;;1.63;1.40;;;21.70;54.80;;;;;;5053005;28;20179;-64
2022/07/29 08:44:45;;;;;;;2.38;1.50;;;21.70;54.80;;;;;;5034511;28;20175;-64
2022/07/29 08:47:13;;;;;;;1.55;1.45;;;21.70;54.80;;;;;;5034931;28;20171;-63
2022/07/29 08:49:39;;;;;;;1.70;1.40;;;21.70;54.80;;;;;;5034790;28;20637;-63
2022/07/29 08:52:04;;;;;;;2.38;1.40;;;21.70;54.80;;;;;;5034384;28;20174;-64
2022/07/29 08:54:30;;;;;;;3.45;1.65;;;21.70;54.80;;;;;;5034454;28;20218;-64
2022/07/29 08:56:55;;;;;;;2.90;1.27;;;21.70;54.80;;;;;;5052259;28;20178;-64
2022/07/29 08:59:22;;;;;;;2.58;1.38;;;21.70;54.80;;;;;;5017236;28;20175;-64
2022/07/29 09:01:48;;;;;;;2.85;1.77;;;21.70;54.80;;;;;;5052350;28;20641;-65
2022/07/29 09:04:13;;;;;;;1.65;1.50;;;21.70;54.90;;;;;;5052469;28;20559;-64
2022/07/29 09:06:43;;;;;;;2.28;1.23;;;21.70;54.80;;;;;;5033724;28;20179;-65
2022/07/29 09:09:09;;;;;;;2.03;1.52;;;21.70;54.90;;;;;;5052231;28;20244;-65
2022/07/29 09:11:34;;;;;;;2.33;1.45;;;21.70;54.90;;;;;;5052625;28;20185;-64
2022/07/29 09:14:00;;;;;;;1.48;1.38;;;21.70;54.90;;;;;;5033576;28;20218;-65
2022/07/29 09:16:25;;;;;;;1.40;1.20;;;21.70;54.90;;;;;;5034628;28;20201;-65
2022/07/29 09:18:51;;;;;;;1.48;1.38;;;21.70;54.90;;;;;;5052122;28;20209;-65
2022/07/29 09:24:11;;;;;;;1.60;1.50;;;21.70;54.90;;;;;;5052074;28;20215;-65
2022/07/29 09:26:44;;;;;;;3.05;1.40;;;21.70;55.00;;;;;;5052254;28;20547;-64
2022/07/29 09:29:17;;;;;;;2.15;1.65;;;21.70;55.00;;;;;;5034751;28;20183;-64
2022/07/29 09:31:45;;;;;;;3.28;1.50;;;21.70;54.90;;;;;;5015873;28;1037355;-65
2022/07/29 09:34:11;;;;;;;2.25;1.83;;;21.70;55.00;;;;;;5051921;28;20257;-64
2022/07/29 09:36:44;;;;;;;1.50;1.27;;;21.70;55.00;;;;;;5053036;28;20187;-64
2022/07/29 09:39:09;;;;;;;1.73;1.38;;;21.70;55.00;;;;;;5052885;28;20198;-65
2022/07/29 09:41:49;;;;;;;2.25;1.40;;;21.70;55.00;;;;;;5052219;28;20574;-64
2022/07/29 09:44:14;;;;;;;2.65;1.92;;;21.70;55.00;;;;;;5052685;28;20183;-64
2022/07/29 09:46:51;;;;;;;2.47;1.25;;;21.70;55.00;;;;;;5034709;28;20181;-64
2022/07/29 09:49:16;;;;;;;1.55;1.30;;;21.70;55.00;;;;;;5052127;28;20179;-63
2022/07/29 09:51:42;;;;;;;1.50;1.40;;;21.70;55.00;;;;;;5052658;28;20285;-64
2022/07/29 09:54:25;;;;;;;1.67;1.30;;;21.70;55.00;;;;;;5052580;28;20298;-64
2022/07/29 09:56:51;;;;;;;2.30;1.55;;;21.70;55.00;;;;;;5051760;28;20329;-64
2022/07/29 09:59:16;;;;;;;1.55;1.40;;;21.70;55.10;;;;;;5052439;28;20178;-64
2022/07/29 10:01:42;;;;;;;1.33;1.20;;;21.70;55.00;;;;;;5052442;28;20175;-64
2022/07/29 10:04:07;;;;;;;2.95;1.50;;;21.70;55.10;;;;;;5033981;28;20171;-64
2022/07/29 10:06:33;;;;;;;1.85;1.40;;;21.70;55.00;;;;;;5034890;28;20287;-64
2022/07/29 10:09:09;;;;;;;1.90;1.33;;;21.70;55.10;;;;;;5052353;28;20258;-65
2022/07/29 10:11:34;;;;;;;2.50;1.38;;;21.70;55.10;;;;;;5054722;28;20223;-65
2022/07/29 10:14:01;;;;;;;1.67;1.42;;;21.80;55.20;;;;;;5056271;28;20679;-65
2022/07/29 10:16:32;;;;;;;3.17;1.52;;;21.80;55.30;;;;;;5038216;28;20541;-65
2022/07/29 10:18:58;;;;;;;1.50;1.40;;;21.80;55.10;;;;;;5023729;28;20248;-65
2022/07/29 10:21:24;;;;;;;1.33;1.23;;;21.90;55.10;;;;;;5038770;28;20175;-63
2022/07/29 10:23:50;;;;;;;2.03;1.50;;;21.90;55.00;;;;;;5055366;28;20232;-63
2022/07/29 10:26:15;;;;;;;1.60;1.50;;;21.90;55.20;;;;;;5038186;28;20250;-63
2022/07/29 10:28:41;;;;;;;3.55;1.80;;;22.00;55.40;;;;;;5038434;28;20175;-62
2022/07/29 10:31:07;;;;;;;2.80;1.58;;;22.00;55.50;;;;;;5037642;28;20276;-63
2022/07/29 10:33:59;;;;;;;2.33;1.73;;;22.10;55.50;;;;;;5038568;28;20217;-63
2022/07/29 10:36:27;;;;;;;2.55;1.55;;;22.10;55.20;;;;;;5038276;28;20186;-63
2022/07/29 10:39:34;;;;;;;1.70;1.33;;;22.10;55.00;;;;;;5037199;28;20176;-63
2022/07/29 10:42:11;;;;;;;3.75;1.50;;;22.30;55.10;;;;;;5024769;28;20183;-64
2022/07/29 10:44:39;;;;;;;3.88;1.50;;;22.30;55.00;;;;;;5055518;28;20171;-63
2022/07/29 10:47:05;;;;;;;5.88;1.42;;;22.40;55.00;;;;;;5055706;28;20179;-63
2022/07/29 10:49:30;;;;;;;3.53;1.73;;;22.40;55.00;;;;;;5037911;28;20170;-64
2022/07/29 10:52:07;;;;;;;2.03;1.50;;;22.40;55.00;;;;;;5036900;28;20641;-64
2022/07/29 10:54:33;;;;;;;3.63;1.48;;;22.40;55.00;;;;;;5055719;28;20217;-64
2022/07/29 10:57:13;;;;;;;2.70;1.30;;;22.50;55.00;;;;;;5055653;28;20175;-65
2022/07/29 10:59:39;;;;;;;6.90;1.85;;;22.40;54.90;;;;;;5054776;28;20179;-66
2022/07/29 11:02:36;;;;;;;5.97;1.65;;;22.50;55.00;;;;;;5055850;28;20175;-66
2022/07/29 11:05:08;;;;;;;4.93;1.67;;;22.50;55.10;;;;;;5055381;28;20175;-66
2022/07/29 11:07:34;;;;;;;3.40;1.70;;;22.60;55.00;;;;;;5054909;28;20182;-65
2022/07/29 11:10:15;;;;;;;6.93;2.15;;;22.60;55.00;;;;;;5055293;28;20278;-66
2022/07/29 11:12:40;;;;;;;2.90;1.67;;;22.60;55.00;;;;;;5054617;28;20229;-66
2022/07/29 11:15:16;;;;;;;4.35;1.80;;;22.60;55.00;;;;;;5055565;28;20637;-66
2022/07/29 11:17:54;;;;;;;5.25;1.90;;;22.60;55.00;;;;;;5055441;28;20206;-66
2022/07/29 11:20:41;;;;;;;3.80;1.50;;;22.70;55.00;;;;;;5054512;28;20178;-66
2022/07/29 11:23:35;;;;;;;3.28;1.30;;;22.70;55.00;;;;;;5054805;28;20677;-65
2022/07/29 11:26:12;;;;;;;2.05;1.65;;;22.70;55.00;;;;;;5055181;28;20573;-66
2022/07/29 11:28:49;;;;;;;3.05;1.50;;;22.70;55.00;;;;;;5054206;28;20584;-65
2022/07/29 11:31:16;;;;;;;2.95;2.00;;;22.60;55.00;;;;;;5055229;28;20226;-65
2022/07/29 11:33:42;;;;;;;3.70;1.60;;;22.70;55.10;;;;;;5036422;28;20673;-65
2022/07/29 11:36:10;;;;;;;3.78;1.60;;;22.60;55.10;;;;;;5055018;28;20217;-66
2022/07/29 11:38:35;;;;;;;6.03;1.88;;;22.60;55.20;;;;;;5054875;28;20544;-67
2022/07/29 11:41:25;;;;;;;4.03;1.70;;;22.60;55.10;;;;;;5036309;28;20221;-67
2022/07/29 11:43:52;;;;;;;5.05;1.90;;;22.70;54.90;;;;;;5054860;28;20183;-66
2022/07/29 11:46:45;;;;;;;2.83;1.70;;;22.70;54.80;;;;;;5054728;28;20178;-66
2022/07/29 11:49:11;;;;;;;4.32;1.45;;;22.60;54.80;;;;;;5036310;28;20179;-66
2022/07/29 11:51:37;;;;;;;4.78;1.63;;;22.60;54.90;;;;;;5055013;28;20183;-65
2022/07/29 11:54:02;;;;;;;2.90;1.73;;;22.50;54.90;;;;;;5054686;28;20298;-66
2022/07/29 11:56:29;;;;;;;5.07;1.55;;;22.50;54.90;;;;;;5036396;28;20261;-66
2022/07/29 11:59:05;;;;;;;1.95;1.52;;;22.50;54.80;;;;;;5020283;28;20183;-66
2022/07/29 12:01:31;;;;;;;3.13;1.55;;;22.50;54.80;;;;;;5054525;28;20175;-66
2022/07/29 12:04:07;;;;;;;4.07;2.00;;;22.50;54.70;;;;;;5053564;28;20552;-66
2022/07/29 12:06:33;;;;;;;1.88;1.65;;;22.50;54.60;;;;;;5054752;28;20539;-66
2022/07/29 12:09:00;;;;;;;3.28;1.50;;;22.50;54.60;;;;;;5053714;28;20202;-66
2022/07/29 12:11:25;;;;;;;3.20;1.70;;;22.50;54.50;;;;;;5054454;28;20179;-66
2022/07/29 12:13:51;;;;;;;3.97;1.52;;;22.60;54.50;;;;;;5035771;28;20257;-66
2022/07/29 12:16:17;;;;;;;5.03;1.95;;;22.60;54.40;;;;;;5053486;28;20179;-67
2022/07/29 12:18:54;;;;;;;2.08;1.55;;;22.60;54.30;;;;;;5054011;28;20176;-67
2022/07/29 12:21:19;;;;;;;4.28;1.50;;;22.70;54.20;;;;;;5038216;28;20177;-67
2022/07/29 12:23:55;;;;;;;1.80;1.42;;;22.80;54.20;;;;;;5053349;28;20175;-66
2022/07/29 12:26:21;;;;;;;5.03;1.65;;;22.80;54.00;;;;;;5054128;28;20174;-66
2022/07/29 12:28:46;;;;;;;5.00;1.85;;;22.90;54.10;;;;;;5053856;28;20171;-66
2022/07/29 12:31:15;;;;;;;4.80;2.00;;;22.90;54.20;;;;;;5053025;28;20226;-66
2022/07/29 12:33:40;;;;;;;5.75;1.63;;;23.00;54.30;;;;;;5053073;28;20234;-66
2022/07/29 12:36:06;;;;;;;2.92;1.50;;;23.00;54.20;;;;;;5019720;28;20646;-67
2022/07/29 12:38:31;;;;;;;3.08;1.73;;;23.10;54.20;;;;;;5053250;28;20633;-67
2022/07/29 12:40:57;;;;;;;1.75;1.42;;;23.00;54.00;;;;;;5053643;28;20174;-66
2022/07/29 12:43:23;;;;;;;2.90;1.45;;;23.00;54.60;;;;;;5035978;28;20653;-66
2022/07/29 12:45:50;;;;;;;3.53;1.42;;;23.00;54.10;;;;;;5052737;28;20175;-67
2022/07/29 12:48:17;;;;;;;2.78;1.60;;;23.00;54.00;;;;;;5053782;28;20281;-66
2022/07/29 12:50:59;;;;;;;4.00;2.15;;;23.10;53.90;;;;;;5053327;28;20642;-65
2022/07/29 12:53:25;;;;;;;3.00;1.48;;;23.10;53.80;;;;;;5053492;28;20234;-64
2022/07/29 12:55:51;;;;;;;3.03;1.90;;;23.20;53.70;;;;;;5053385;28;20653;-66
2022/07/29 12:58:34;;;;;;;4.70;1.58;;;23.20;53.60;;;;;;5052407;28;20273;-67
2022/07/29 13:01:14;;;;;;;4.38;1.60;;;23.20;53.50;;;;;;5053399;28;20657;-67
2022/07/29 13:03:53;;;;;;;3.38;1.58;;;23.30;53.40;;;;;;5053110;28;20532;-68